sensor_id;sensor_type;location;lat;lon;timestamp;pressure;altitude;pressure_sealevel;temperature;humidity
16664;BME280;8445;51.270;9.434;2023-02-28T00:02:13;100796.56;;;0.22;56.49
16664;BME280;8445;51.270;9.434;2023-02-28T00:04:57;100800.03;;;0.23;56.75
16664;BME280;8445;51.270;9.434;2023-02-28T00:07:39;100791.34;;;0.24;56.41
16664;BME280;8445;51.270;9.434;2023-02-28T00:10:38;100805.97;;;0.34;56.31
16664;BME280;8445;51.270;9.434;2023-02-28T00:13:06;100795.56;;;0.33;56.06
16664;BME280;8445;51.270;9.434;2023-02-28T00:18:52;100798.13;;;0.36;56.01
16664;BME280;8445;51.270;9.434;2023-02-28T00:21:20;100799.84;;;0.41;56.41
16664;BME280;8445;51.270;9.434;2023-02-28T00:24:19;100795.44;;;0.45;56.01
16664;BME280;8445;51.270;9.434;2023-02-28T00:26:49;100796.44;;;0.33;55.80
16664;BME280;8445;51.270;9.434;2023-02-28T00:29:35;100806.13;;;0.20;55.98
16664;BME280;8445;51.270;9.434;2023-02-28T00:32:07;100804.50;;;0.10;56.12
16664;BME280;8445;51.270;9.434;2023-02-28T00:37:25;100798.59;;;-0.09;55.93
16664;BME280;8445;51.270;9.434;2023-02-28T00:39:53;100796.06;;;-0.17;56.26
16664;BME280;8445;51.270;9.434;2023-02-28T00:42:43;100795.31;;;-0.30;56.24
16664;BME280;8445;51.270;9.434;2023-02-28T00:45:09;100793.59;;;-0.34;55.84
16664;BME280;8445;51.270;9.434;2023-02-28T00:47:56;100794.56;;;-0.46;55.84
16664;BME280;8445;51.270;9.434;2023-02-28T00:50:57;100785.22;;;-0.75;56.02
16664;BME280;8445;51.270;9.434;2023-02-28T00:54:07;100796.59;;;-0.88;55.80
16664;BME280;8445;51.270;9.434;2023-02-28T00:56:58;100801.84;;;-1.01;55.95
16664;BME280;8445;51.270;9.434;2023-02-28T00:59:47;100796.66;;;-1.01;56.04
16664;BME280;8445;51.270;9.434;2023-02-28T01:02:15;100790.63;;;-1.08;55.69
16664;BME280;8445;51.270;9.434;2023-02-28T01:05:03;100804.47;;;-1.09;55.87
16664;BME280;8445;51.270;9.434;2023-02-28T01:07:44;100792.34;;;-1.10;55.70
16664;BME280;8445;51.270;9.434;2023-02-28T01:10:38;100794.09;;;-1.12;55.60
16664;BME280;8445;51.270;9.434;2023-02-28T01:13:06;100800.16;;;-1.13;55.96
16664;BME280;8445;51.270;9.434;2023-02-28T01:15:32;100797.56;;;-1.11;56.02
16664;BME280;8445;51.270;9.434;2023-02-28T01:18:07;100789.69;;;-0.94;55.96
16664;BME280;8445;51.270;9.434;2023-02-28T01:20:49;100793.06;;;-0.80;55.97
16664;BME280;8445;51.270;9.434;2023-02-28T01:23:38;100792.97;;;-0.66;56.04
16664;BME280;8445;51.270;9.434;2023-02-28T01:26:36;100796.38;;;-0.57;56.10
16664;BME280;8445;51.270;9.434;2023-02-28T01:29:04;100794.59;;;-0.51;56.05
16664;BME280;8445;51.270;9.434;2023-02-28T01:31:54;100785.91;;;-0.45;55.94
16664;BME280;8445;51.270;9.434;2023-02-28T01:34:41;100779.88;;;-0.52;55.90
16664;BME280;8445;51.270;9.434;2023-02-28T01:38:08;100786.88;;;-0.60;55.84
16664;BME280;8445;51.270;9.434;2023-02-28T01:41:03;100780.84;;;-0.65;55.45
16664;BME280;8445;51.270;9.434;2023-02-28T01:46:24;100783.44;;;-0.62;55.94
16664;BME280;8445;51.270;9.434;2023-02-28T01:49:28;100774.72;;;-0.58;56.19
16664;BME280;8445;51.270;9.434;2023-02-28T01:52:20;100779.06;;;-0.58;55.71
16664;BME280;8445;51.270;9.434;2023-02-28T01:55:22;100768.69;;;-0.60;55.69
16664;BME280;8445;51.270;9.434;2023-02-28T01:58:26;100778.28;;;-0.71;56.00
16664;BME280;8445;51.270;9.434;2023-02-28T02:00:58;100765.28;;;-0.73;55.74
16664;BME280;8445;51.270;9.434;2023-02-28T02:03:44;100773.09;;;-0.71;56.02
16664;BME280;8445;51.270;9.434;2023-02-28T02:06:11;100768.75;;;-0.69;55.67
16664;BME280;8445;51.270;9.434;2023-02-28T02:08:53;100767.03;;;-0.75;55.93
16664;BME280;8445;51.270;9.434;2023-02-28T02:11:51;100765.34;;;-0.78;55.91
16664;BME280;8445;51.270;9.434;2023-02-28T02:41:53;100761.88;;;-0.78;55.97
16664;BME280;8445;51.270;9.434;2023-02-28T02:44:27;100758.38;;;-0.74;56.15
16664;BME280;8445;51.270;9.434;2023-02-28T02:47:03;100757.47;;;-0.68;55.62
16664;BME280;8445;51.270;9.434;2023-02-28T02:49:36;100750.59;;;-0.72;56.06
16664;BME280;8445;51.270;9.434;2023-02-28T02:52:15;100762.63;;;-0.61;56.16
16664;BME280;8445;51.270;9.434;2023-02-28T02:54:46;100761.69;;;-0.55;55.73
16664;BME280;8445;51.270;9.434;2023-02-28T02:57:40;100759.94;;;-0.51;55.85
16664;BME280;8445;51.270;9.434;2023-02-28T03:00:16;100759.97;;;-0.54;55.79
16664;BME280;8445;51.270;9.434;2023-02-28T03:02:47;100760.75;;;-0.45;56.23
16664;BME280;8445;51.270;9.434;2023-02-28T03:05:27;100761.59;;;-0.38;55.89
16664;BME280;8445;51.270;9.434;2023-02-28T03:08:22;100764.13;;;-0.33;55.98
16664;BME280;8445;51.270;9.434;2023-02-28T03:11:37;100764.09;;;-0.30;56.09
16664;BME280;8445;51.270;9.434;2023-02-28T03:14:51;100763.22;;;-0.29;55.88
16664;BME280;8445;51.270;9.434;2023-02-28T03:21:43;100764.06;;;-0.27;55.65
16664;BME280;8445;51.270;9.434;2023-02-28T03:31:38;100767.53;;;-0.25;56.00
16664;BME280;8445;51.270;9.434;2023-02-28T03:34:15;100758.00;;;-0.27;56.19
16664;BME280;8445;51.270;9.434;2023-02-28T03:40:40;100767.47;;;-0.19;55.91
16664;BME280;8445;51.270;9.434;2023-02-28T03:43:15;100766.59;;;-0.19;55.98
16664;BME280;8445;51.270;9.434;2023-02-28T03:46:13;100757.09;;;-0.22;55.92
16664;BME280;8445;51.270;9.434;2023-02-28T03:49:11;100757.91;;;-0.17;55.74
16664;BME280;8445;51.270;9.434;2023-02-28T03:51:58;100761.41;;;-0.19;55.71
16664;BME280;8445;51.270;9.434;2023-02-28T03:54:59;100754.44;;;-0.16;56.11
16664;BME280;8445;51.270;9.434;2023-02-28T03:58:04;100749.22;;;-0.12;55.72
16664;BME280;8445;51.270;9.434;2023-02-28T04:00:38;100758.75;;;-0.11;55.64
16664;BME280;8445;51.270;9.434;2023-02-28T04:03:58;100754.34;;;-0.08;55.51
16664;BME280;8445;51.270;9.434;2023-02-28T04:06:44;100760.47;;;-0.10;56.00
16664;BME280;8445;51.270;9.434;2023-02-28T04:09:42;100756.09;;;-0.07;55.86
16664;BME280;8445;51.270;9.434;2023-02-28T04:12:46;100758.66;;;-0.02;56.15
16664;BME280;8445;51.270;9.434;2023-02-28T04:15:20;100765.66;;;-0.10;56.00
16664;BME280;8445;51.270;9.434;2023-02-28T04:18:05;100774.34;;;-0.11;55.77
16664;BME280;8445;51.270;9.434;2023-02-28T04:21:03;100765.66;;;-0.10;55.73
16664;BME280;8445;51.270;9.434;2023-02-28T04:23:48;100771.78;;;-0.14;56.02
16664;BME280;8445;51.270;9.434;2023-02-28T04:29:29;100765.75;;;-0.20;55.91
16664;BME280;8445;51.270;9.434;2023-02-28T04:32:24;100765.81;;;-0.29;55.66
16664;BME280;8445;51.270;9.434;2023-02-28T04:35:44;100767.59;;;-0.34;55.46
16664;BME280;8445;51.270;9.434;2023-02-28T04:41:30;100772.19;;;-0.64;55.73
16664;BME280;8445;51.270;9.434;2023-02-28T04:44:15;100762.69;;;-0.71;55.83
16664;BME280;8445;51.270;9.434;2023-02-28T04:47:03;100773.94;;;-0.71;55.98
16664;BME280;8445;51.270;9.434;2023-02-28T04:49:28;100773.13;;;-0.78;55.88
16664;BME280;8445;51.270;9.434;2023-02-28T04:52:21;100772.19;;;-0.69;55.77
16664;BME280;8445;51.270;9.434;2023-02-28T04:54:58;100779.97;;;-0.61;55.83
16664;BME280;8445;51.270;9.434;2023-02-28T04:57:32;100769.50;;;-0.55;55.63
16664;BME280;8445;51.270;9.434;2023-02-28T05:00:38;100771.19;;;-0.46;55.35
16664;BME280;8445;51.270;9.434;2023-02-28T05:03:13;100762.63;;;-0.62;55.47
16664;BME280;8445;51.270;9.434;2023-02-28T05:05:59;100775.63;;;-0.62;55.18
16664;BME280;8445;51.270;9.434;2023-02-28T05:08:27;100769.69;;;-0.80;55.21
16664;BME280;8445;51.270;9.434;2023-02-28T05:10:54;100783.53;;;-0.78;55.29
16664;BME280;8445;51.270;9.434;2023-02-28T05:13:20;100787.84;;;-0.77;55.38
16664;BME280;8445;51.270;9.434;2023-02-28T05:15:45;100784.34;;;-0.74;55.16
16664;BME280;8445;51.270;9.434;2023-02-28T05:18:11;100789.50;;;-0.68;55.32
16664;BME280;8445;51.270;9.434;2023-02-28T05:20:37;100788.66;;;-0.65;55.35
16664;BME280;8445;51.270;9.434;2023-02-28T05:23:03;100790.34;;;-0.61;55.56
16664;BME280;8445;51.270;9.434;2023-02-28T05:25:28;100795.56;;;-0.64;55.45
16664;BME280;8445;51.270;9.434;2023-02-28T05:27:54;100785.19;;;-0.64;55.27
16664;BME280;8445;51.270;9.434;2023-02-28T05:30:19;100789.47;;;-0.62;55.43
16664;BME280;8445;51.270;9.434;2023-02-28T05:32:50;100789.47;;;-0.60;55.54
16664;BME280;8445;51.270;9.434;2023-02-28T05:35:16;100786.91;;;-0.63;55.68
16664;BME280;8445;51.270;9.434;2023-02-28T05:37:42;100787.72;;;-0.60;55.65
16664;BME280;8445;51.270;9.434;2023-02-28T05:40:08;100785.94;;;-0.51;55.55
16664;BME280;8445;51.270;9.434;2023-02-28T05:42:37;100789.41;;;-0.49;55.24
16664;BME280;8445;51.270;9.434;2023-02-28T05:45:03;100791.13;;;-0.48;55.18
16664;BME280;8445;51.270;9.434;2023-02-28T05:47:29;100799.78;;;-0.51;55.44
16664;BME280;8445;51.270;9.434;2023-02-28T05:49:58;100793.72;;;-0.50;55.23
16664;BME280;8445;51.270;9.434;2023-02-28T05:52:27;100799.78;;;-0.49;55.17
16664;BME280;8445;51.270;9.434;2023-02-28T05:54:53;100798.91;;;-0.50;55.51
16664;BME280;8445;51.270;9.434;2023-02-28T05:57:18;100807.59;;;-0.51;55.61
16664;BME280;8445;51.270;9.434;2023-02-28T05:59:44;100796.28;;;-0.43;55.73
16664;BME280;8445;51.270;9.434;2023-02-28T06:02:17;100800.63;;;-0.44;55.90
16664;BME280;8445;51.270;9.434;2023-02-28T06:04:45;100808.38;;;-0.39;56.06
16664;BME280;8445;51.270;9.434;2023-02-28T06:07:13;100803.97;;;-0.28;55.73
16664;BME280;8445;51.270;9.434;2023-02-28T06:09:44;100813.44;;;-0.22;55.81
16664;BME280;8445;51.270;9.434;2023-02-28T06:12:17;100818.53;;;-0.10;55.82
16664;BME280;8445;51.270;9.434;2023-02-28T06:14:45;100815.88;;;-0.04;56.14
16664;BME280;8445;51.270;9.434;2023-02-28T06:17:10;100814.97;;;0.04;56.21
16664;BME280;8445;51.270;9.434;2023-02-28T06:19:39;100811.44;;;0.08;56.46
16664;BME280;8445;51.270;9.434;2023-02-28T06:22:08;100824.41;;;0.12;56.14
16664;BME280;8445;51.270;9.434;2023-02-28T06:24:36;100823.50;;;0.18;56.19
16664;BME280;8445;51.270;9.434;2023-02-28T06:27:07;100829.53;;;0.22;56.59
16664;BME280;8445;51.270;9.434;2023-02-28T06:29:34;100821.69;;;0.26;56.61
16664;BME280;8445;51.270;9.434;2023-02-28T06:32:05;100834.66;;;0.28;56.84
16664;BME280;8445;51.270;9.434;2023-02-28T06:34:34;100838.06;;;0.36;56.92
16664;BME280;8445;51.270;9.434;2023-02-28T06:37:02;100837.97;;;0.46;57.32
16664;BME280;8445;51.270;9.434;2023-02-28T06:39:29;100833.44;;;0.62;57.14
16664;BME280;8445;51.270;9.434;2023-02-28T06:41:57;100832.44;;;0.73;57.31
16664;BME280;8445;51.270;9.434;2023-02-28T06:44:25;100835.88;;;0.76;57.19
16664;BME280;8445;51.270;9.434;2023-02-28T06:46:52;100829.91;;;0.67;57.10
16664;BME280;8445;51.270;9.434;2023-02-28T06:49:25;100837.91;;;0.52;56.80
16664;BME280;8445;51.270;9.434;2023-02-28T06:51:57;100832.84;;;0.36;56.74
16664;BME280;8445;51.270;9.434;2023-02-28T06:54:23;100839.09;;;0.21;56.61
16664;BME280;8445;51.270;9.434;2023-02-28T06:56:53;100832.25;;;0.09;56.46
16664;BME280;8445;51.270;9.434;2023-02-28T06:59:24;100843.59;;;0.01;56.50
16664;BME280;8445;51.270;9.434;2023-02-28T07:01:55;100852.22;;;0.04;56.74
16664;BME280;8445;51.270;9.434;2023-02-28T07:04:21;100846.09;;;0.11;57.15
16664;BME280;8445;51.270;9.434;2023-02-28T07:06:47;100846.03;;;0.22;57.15
16664;BME280;8445;51.270;9.434;2023-02-28T07:09:14;100851.09;;;0.36;57.53
16664;BME280;8445;51.270;9.434;2023-02-28T07:11:49;100847.47;;;0.50;57.66
16664;BME280;8445;51.270;9.434;2023-02-28T07:14:16;100847.31;;;0.64;58.45
16664;BME280;8445;51.270;9.434;2023-02-28T07:16:44;100841.09;;;0.76;58.20
16664;BME280;8445;51.270;9.434;2023-02-28T07:19:10;100833.06;;;0.93;57.78
16664;BME280;8445;51.270;9.434;2023-02-28T07:21:36;100846.91;;;0.98;57.51
16664;BME280;8445;51.270;9.434;2023-02-28T07:24:03;100844.22;;;1.06;57.38
16664;BME280;8445;51.270;9.434;2023-02-28T07:26:38;100841.66;;;1.02;57.44
16664;BME280;8445;51.270;9.434;2023-02-28T07:29:04;100845.22;;;0.94;56.82
16664;BME280;8445;51.270;9.434;2023-02-28T07:31:29;100842.69;;;0.89;57.01
16664;BME280;8445;51.270;9.434;2023-02-28T07:33:57;100850.44;;;0.95;57.18
16664;BME280;8445;51.270;9.434;2023-02-28T07:36:23;100851.25;;;0.97;56.91
16664;BME280;8445;51.270;9.434;2023-02-28T07:38:49;100851.97;;;1.12;58.07
16664;BME280;8445;51.270;9.434;2023-02-28T07:41:21;100843.88;;;1.30;57.21
16664;BME280;8445;51.270;9.434;2023-02-28T07:43:47;100854.94;;;1.48;57.16
16664;BME280;8445;51.270;9.434;2023-02-28T07:46:14;100848.88;;;1.46;56.33
16664;BME280;8445;51.270;9.434;2023-02-28T07:48:40;100849.66;;;1.51;56.62
16664;BME280;8445;51.270;9.434;2023-02-28T07:51:06;100846.09;;;1.58;56.43
16664;BME280;8445;51.270;9.434;2023-02-28T07:53:31;100845.81;;;1.75;56.78
16664;BME280;8445;51.270;9.434;2023-02-28T07:55:58;100845.47;;;1.97;56.87
16664;BME280;8445;51.270;9.434;2023-02-28T07:58:25;100851.50;;;2.02;55.58
16664;BME280;8445;51.270;9.434;2023-02-28T08:00:51;100850.59;;;2.03;55.99
16664;BME280;8445;51.270;9.434;2023-02-28T08:03:21;100855.75;;;2.06;56.14
16664;BME280;8445;51.270;9.434;2023-02-28T08:05:50;100854.75;;;2.14;55.35
16664;BME280;8445;51.270;9.434;2023-02-28T08:08:16;100853.03;;;2.14;56.08
16664;BME280;8445;51.270;9.434;2023-02-28T08:10:44;100853.84;;;2.16;55.68
16664;BME280;8445;51.270;9.434;2023-02-28T08:13:10;100854.69;;;2.18;55.31
16664;BME280;8445;51.270;9.434;2023-02-28T08:15:35;100847.78;;;2.14;55.36
16664;BME280;8445;51.270;9.434;2023-02-28T08:18:04;100850.50;;;2.08;54.93
16664;BME280;8445;51.270;9.434;2023-02-28T08:20:30;100854.38;;;1.84;54.38
16664;BME280;8445;51.270;9.434;2023-02-28T08:22:58;100857.09;;;1.77;55.06
16664;BME280;8445;51.270;9.434;2023-02-28T08:25:29;100853.81;;;1.65;54.81
16664;BME280;8445;51.270;9.434;2023-02-28T08:27:57;100843.63;;;1.49;53.91
16664;BME280;8445;51.270;9.434;2023-02-28T08:30:34;100858.47;;;1.45;54.83
16664;BME280;8445;51.270;9.434;2023-02-28T08:33:11;100855.84;;;1.44;52.67
16664;BME280;8445;51.270;9.434;2023-02-28T08:36:08;100852.38;;;1.45;54.63
16664;BME280;8445;51.270;9.434;2023-02-28T08:39:04;100861.03;;;1.47;54.33
16664;BME280;8445;51.270;9.434;2023-02-28T08:48:38;100858.38;;;1.48;52.91
16664;BME280;8445;51.270;9.434;2023-02-28T08:51:12;100852.38;;;1.45;51.45
16664;BME280;8445;51.270;9.434;2023-02-28T09:02:50;100855.47;;;1.72;52.62
16664;BME280;8445;51.270;9.434;2023-02-28T09:06:05;100855.28;;;1.81;52.37
16664;BME280;8445;51.270;9.434;2023-02-28T09:08:33;100857.88;;;1.83;53.30
16664;BME280;8445;51.270;9.434;2023-02-28T09:11:02;100856.88;;;1.91;53.57
16664;BME280;8445;51.270;9.434;2023-02-28T09:13:31;100848.19;;;1.91;52.84
16664;BME280;8445;51.270;9.434;2023-02-28T09:16:04;100855.94;;;1.96;51.96
16664;BME280;8445;51.270;9.434;2023-02-28T09:18:39;100859.97;;;2.15;53.07
16664;BME280;8445;51.270;9.434;2023-02-28T09:21:09;100859.50;;;2.40;53.18
16664;BME280;8445;51.270;9.434;2023-02-28T09:23:44;100856.28;;;2.73;53.83
16664;BME280;8445;51.270;9.434;2023-02-28T09:26:28;100854.31;;;2.86;50.44
16664;BME280;8445;51.270;9.434;2023-02-28T09:28:54;100853.22;;;2.96;53.20
16664;BME280;8445;51.270;9.434;2023-02-28T09:31:37;100846.13;;;3.03;53.61
16664;BME280;8445;51.270;9.434;2023-02-28T09:34:12;100851.03;;;3.18;53.22
16664;BME280;8445;51.270;9.434;2023-02-28T09:36:38;100852.75;;;3.18;52.34
16664;BME280;8445;51.270;9.434;2023-02-28T09:39:06;100850.16;;;3.18;52.40
16664;BME280;8445;51.270;9.434;2023-02-28T09:41:38;100842.09;;;3.27;51.55
16664;BME280;8445;51.270;9.434;2023-02-28T09:44:36;100843.69;;;3.34;48.23
16664;BME280;8445;51.270;9.434;2023-02-28T09:52:56;100838.63;;;3.66;52.25
16664;BME280;8445;51.270;9.434;2023-02-28T09:57:58;100838.16;;;3.84;51.16
16664;BME280;8445;51.270;9.434;2023-02-28T10:00:43;100845.47;;;4.08;50.79
16664;BME280;8445;51.270;9.434;2023-02-28T10:03:30;100844.66;;;4.04;50.30
16664;BME280;8445;51.270;9.434;2023-02-28T10:08:34;100832.91;;;3.84;50.08
16664;BME280;8445;51.270;9.434;2023-02-28T10:11:16;100839.38;;;3.69;50.24
16664;BME280;8445;51.270;9.434;2023-02-28T10:14:00;100847.38;;;3.65;50.90
16664;BME280;8445;51.270;9.434;2023-02-28T10:16:43;100839.47;;;3.66;50.78
16664;BME280;8445;51.270;9.434;2023-02-28T10:19:26;100841.03;;;3.74;51.62
16664;BME280;8445;51.270;9.434;2023-02-28T10:22:03;100842.25;;;3.95;50.40
16664;BME280;8445;51.270;9.434;2023-02-28T10:27:06;100844.81;;;4.66;51.57
16664;BME280;8445;51.270;9.434;2023-02-28T10:29:38;100849.41;;;4.89;52.21
16664;BME280;8445;51.270;9.434;2023-02-28T10:32:19;100840.13;;;5.07;51.46
16664;BME280;8445;51.270;9.434;2023-02-28T10:35:17;100840.75;;;5.15;50.81
16664;BME280;8445;51.270;9.434;2023-02-28T10:37:54;100849.06;;;5.00;48.71
16664;BME280;8445;51.270;9.434;2023-02-28T10:43:04;100840.25;;;4.72;49.63
16664;BME280;8445;51.270;9.434;2023-02-28T10:45:34;100832.97;;;4.82;51.34
16664;BME280;8445;51.270;9.434;2023-02-28T10:50:51;100839.84;;;5.16;48.66
16664;BME280;8445;51.270;9.434;2023-02-28T11:01:21;100834.53;;;5.19;49.27
16664;BME280;8445;51.270;9.434;2023-02-28T11:03:50;100832.03;;;4.85;49.40
16664;BME280;8445;51.270;9.434;2023-02-28T11:06:26;100826.47;;;4.66;48.43
16664;BME280;8445;51.270;9.434;2023-02-28T11:08:59;100818.78;;;4.58;49.69
16664;BME280;8445;51.270;9.434;2023-02-28T11:11:27;100818.59;;;4.33;49.16
16664;BME280;8445;51.270;9.434;2023-02-28T11:14:05;100820.91;;;4.12;49.03
16664;BME280;8445;51.270;9.434;2023-02-28T11:16:36;100819.44;;;4.02;49.36
16664;BME280;8445;51.270;9.434;2023-02-28T11:19:17;100820.34;;;3.99;49.28
16664;BME280;8445;51.270;9.434;2023-02-28T11:21:58;100808.44;;;3.87;47.24
16664;BME280;8445;51.270;9.434;2023-02-28T11:24:27;100804.31;;;3.77;48.43
16664;BME280;8445;51.270;9.434;2023-02-28T11:26:54;100820.91;;;3.76;49.02
16664;BME280;8445;51.270;9.434;2023-02-28T11:29:26;100799.22;;;3.72;48.61
16664;BME280;8445;51.270;9.434;2023-02-28T11:34:34;100803.66;;;3.68;48.58
16664;BME280;8445;51.270;9.434;2023-02-28T11:37:05;100798.53;;;3.64;48.78
16664;BME280;8445;51.270;9.434;2023-02-28T11:39:35;100802.81;;;3.66;48.65
16664;BME280;8445;51.270;9.434;2023-02-28T11:42:11;100808.06;;;3.66;47.98
16664;BME280;8445;51.270;9.434;2023-02-28T11:50:48;100795.78;;;3.68;46.85
16664;BME280;8445;51.270;9.434;2023-02-28T11:56:36;100796.09;;;3.56;45.09
16664;BME280;8445;51.270;9.434;2023-02-28T12:07:07;100785.97;;;3.78;48.27
16664;BME280;8445;51.270;9.434;2023-02-28T12:12:18;100790.25;;;3.81;46.67
16664;BME280;8445;51.270;9.434;2023-02-28T12:14:56;100785.03;;;3.81;47.74
16664;BME280;8445;51.270;9.434;2023-02-28T12:25:55;100776.13;;;3.88;48.16
16664;BME280;8445;51.270;9.434;2023-02-28T12:28:30;100772.75;;;3.83;47.54
16664;BME280;8445;51.270;9.434;2023-02-28T12:31:01;100766.50;;;3.89;48.00
16664;BME280;8445;51.270;9.434;2023-02-28T12:33:34;100770.88;;;3.88;48.11
16664;BME280;8445;51.270;9.434;2023-02-28T12:36:05;100751.75;;;3.86;46.77
16664;BME280;8445;51.270;9.434;2023-02-28T12:38:39;100757.56;;;3.97;47.42
16664;BME280;8445;51.270;9.434;2023-02-28T12:41:18;100760.34;;;3.91;47.50
16664;BME280;8445;51.270;9.434;2023-02-28T12:43:55;100756.91;;;3.89;47.41
16664;BME280;8445;51.270;9.434;2023-02-28T12:46:27;100760.34;;;3.91;46.52
16664;BME280;8445;51.270;9.434;2023-02-28T12:48:59;100749.72;;;3.97;47.47
16664;BME280;8445;51.270;9.434;2023-02-28T12:51:26;100747.81;;;4.03;47.63
16664;BME280;8445;51.270;9.434;2023-02-28T12:53:58;100752.09;;;4.07;46.91
16664;BME280;8445;51.270;9.434;2023-02-28T13:02:44;100731.75;;;4.15;46.17
16664;BME280;8445;51.270;9.434;2023-02-28T13:08:27;100743.31;;;4.08;45.84
16664;BME280;8445;51.270;9.434;2023-02-28T13:10:59;100737.28;;;4.06;47.44
16664;BME280;8445;51.270;9.434;2023-02-28T13:13:27;100730.91;;;4.14;47.60
16664;BME280;8445;51.270;9.434;2023-02-28T13:16:05;100730.03;;;4.14;46.44
16664;BME280;8445;51.270;9.434;2023-02-28T13:18:43;100729.03;;;4.20;46.55
16664;BME280;8445;51.270;9.434;2023-02-28T13:21:32;100715.88;;;4.21;46.67
16664;BME280;8445;51.270;9.434;2023-02-28T13:24:08;100725.53;;;4.19;47.35
16664;BME280;8445;51.270;9.434;2023-02-28T13:35:20;100717.75;;;4.16;48.01
16664;BME280;8445;51.270;9.434;2023-02-28T13:47:48;100701.53;;;4.35;46.41
16664;BME280;8445;51.270;9.434;2023-02-28T13:53:29;100710.19;;;4.38;46.47
16664;BME280;8445;51.270;9.434;2023-02-28T14:03:55;100698.09;;;4.33;47.14
16664;BME280;8445;51.270;9.434;2023-02-28T14:06:30;100700.00;;;4.27;46.48
16664;BME280;8445;51.270;9.434;2023-02-28T14:09:03;100685.72;;;4.38;46.53
16664;BME280;8445;51.270;9.434;2023-02-28T14:11:35;100690.69;;;4.47;47.78
16664;BME280;8445;51.270;9.434;2023-02-28T14:14:02;100686.69;;;4.35;47.60
16664;BME280;8445;51.270;9.434;2023-02-28T14:16:41;100684.09;;;4.34;45.16
16664;BME280;8445;51.270;9.434;2023-02-28T14:19:25;100679.66;;;4.36;46.05
16664;BME280;8445;51.270;9.434;2023-02-28T14:22:05;100681.13;;;4.46;46.40
16664;BME280;8445;51.270;9.434;2023-02-28T14:24:59;100680.03;;;4.53;46.94
16664;BME280;8445;51.270;9.434;2023-02-28T14:27:40;100676.47;;;4.56;47.90
16664;BME280;8445;51.270;9.434;2023-02-28T14:30:14;100687.00;;;4.54;47.41
16664;BME280;8445;51.270;9.434;2023-02-28T14:33:12;100685.38;;;4.50;46.29
16664;BME280;8445;51.270;9.434;2023-02-28T14:35:50;100682.56;;;4.56;47.79
16664;BME280;8445;51.270;9.434;2023-02-28T14:38:23;100678.69;;;4.40;46.34
16664;BME280;8445;51.270;9.434;2023-02-28T14:40:52;100669.09;;;4.39;47.47
16664;BME280;8445;51.270;9.434;2023-02-28T14:43:21;100685.63;;;4.41;47.07
16664;BME280;8445;51.270;9.434;2023-02-28T14:45:53;100684.88;;;4.37;46.47
16664;BME280;8445;51.270;9.434;2023-02-28T14:48:20;100680.13;;;4.50;47.48
16664;BME280;8445;51.270;9.434;2023-02-28T14:50:57;100677.63;;;4.45;45.99
16664;BME280;8445;51.270;9.434;2023-02-28T14:53:27;100677.69;;;4.44;47.28
16664;BME280;8445;51.270;9.434;2023-02-28T14:55:54;100684.88;;;4.37;46.85
16664;BME280;8445;51.270;9.434;2023-02-28T14:58:31;100678.91;;;4.32;46.34
16664;BME280;8445;51.270;9.434;2023-02-28T15:01:01;100667.75;;;4.25;46.74
16664;BME280;8445;51.270;9.434;2023-02-28T15:03:31;100670.44;;;4.22;46.83
16664;BME280;8445;51.270;9.434;2023-02-28T15:05:59;100672.16;;;4.23;47.08
16664;BME280;8445;51.270;9.434;2023-02-28T15:08:26;100674.66;;;4.28;47.06
16664;BME280;8445;51.270;9.434;2023-02-28T15:11:06;100664.84;;;4.35;47.08
16664;BME280;8445;51.270;9.434;2023-02-28T15:13:52;100671.91;;;4.33;47.00
16664;BME280;8445;51.270;9.434;2023-02-28T15:16:23;100671.91;;;4.33;47.18
16664;BME280;8445;51.270;9.434;2023-02-28T15:18:54;100671.16;;;4.29;47.21
16664;BME280;8445;51.270;9.434;2023-02-28T15:21:23;100675.59;;;4.25;46.86
16664;BME280;8445;51.270;9.434;2023-02-28T15:23:54;100675.69;;;4.22;47.29
16664;BME280;8445;51.270;9.434;2023-02-28T15:26:29;100663.41;;;4.24;47.13
16664;BME280;8445;51.270;9.434;2023-02-28T15:29:03;100668.06;;;4.14;47.09
16664;BME280;8445;51.270;9.434;2023-02-28T15:31:37;100679.38;;;4.15;46.85
16664;BME280;8445;51.270;9.434;2023-02-28T15:34:12;100672.53;;;4.11;46.98
16664;BME280;8445;51.270;9.434;2023-02-28T15:36:42;100673.53;;;4.07;47.05
16664;BME280;8445;51.270;9.434;2023-02-28T15:39:25;100677.94;;;4.05;46.04
16664;BME280;8445;51.270;9.434;2023-02-28T15:41:54;100681.63;;;3.97;47.10
16664;BME280;8445;51.270;9.434;2023-02-28T15:44:34;100690.47;;;3.93;47.19
16664;BME280;8445;51.270;9.434;2023-02-28T15:49:49;100688.19;;;3.81;46.91
16664;BME280;8445;51.270;9.434;2023-02-28T15:52:20;100695.22;;;3.79;47.18
16664;BME280;8445;51.270;9.434;2023-02-28T15:54:47;100697.00;;;3.77;47.71
16664;BME280;8445;51.270;9.434;2023-02-28T15:57:24;100690.28;;;3.68;46.92
16664;BME280;8445;51.270;9.434;2023-02-28T15:59:57;100688.56;;;3.65;47.15
16664;BME280;8445;51.270;9.434;2023-02-28T16:02:35;100698.31;;;3.60;47.62
16664;BME280;8445;51.270;9.434;2023-02-28T16:07:33;100687.16;;;3.53;47.76
16664;BME280;8445;51.270;9.434;2023-02-28T16:10:00;100702.16;;;3.47;47.75
16664;BME280;8445;51.270;9.434;2023-02-28T16:12:27;100691.63;;;3.48;47.13
16664;BME280;8445;51.270;9.434;2023-02-28T16:14:56;100698.78;;;3.41;47.80
16664;BME280;8445;51.270;9.434;2023-02-28T16:17:27;100702.47;;;3.34;47.05
16664;BME280;8445;51.270;9.434;2023-02-28T16:19:55;100699.31;;;3.20;47.49
16664;BME280;8445;51.270;9.434;2023-02-28T16:22:21;100709.91;;;3.14;47.31
16664;BME280;8445;51.270;9.434;2023-02-28T16:24:46;100702.25;;;3.06;47.59
16664;BME280;8445;51.270;9.434;2023-02-28T16:27:18;100701.25;;;3.11;47.63
16664;BME280;8445;51.270;9.434;2023-02-28T16:29:45;100710.53;;;2.87;47.71
16664;BME280;8445;51.270;9.434;2023-02-28T16:32:14;100710.44;;;2.92;47.48
16664;BME280;8445;51.270;9.434;2023-02-28T16:34:40;100709.03;;;2.75;47.98
16664;BME280;8445;51.270;9.434;2023-02-28T16:37:11;100711.91;;;2.64;47.78
16664;BME280;8445;51.270;9.434;2023-02-28T16:39:37;100711.91;;;2.63;47.64
16664;BME280;8445;51.270;9.434;2023-02-28T16:42:02;100721.59;;;2.58;47.52
16664;BME280;8445;51.270;9.434;2023-02-28T16:44:34;100717.47;;;2.47;48.16
16664;BME280;8445;51.270;9.434;2023-02-28T16:47:01;100723.69;;;2.42;48.33
16664;BME280;8445;51.270;9.434;2023-02-28T16:49:28;100723.84;;;2.34;47.89